sensor_id;sensor_type;location;lat;lon;timestamp;temperature;humidity
19342;DHT22;9807;48.258;12.690;2023-04-03T00:02:22;4.50;99.90
19342;DHT22;9807;48.258;12.690;2023-04-03T00:04:48;4.40;99.90
19342;DHT22;9807;48.258;12.690;2023-04-03T00:07:14;4.40;99.90
19342;DHT22;9807;48.258;12.690;2023-04-03T00:09:40;4.30;99.90
19342;DHT22;9807;48.258;12.690;2023-04-03T00:12:06;4.30;99.90
19342;DHT22;9807;48.258;12.690;2023-04-03T00:14:37;4.20;99.90
19342;DHT22;9807;48.258;12.690;2023-04-03T00:17:03;4.20;99.90
19342;DHT22;9807;48.258;12.690;2023-04-03T00:19:28;4.20;99.90
19342;DHT22;9807;48.258;12.690;2023-04-03T00:21:54;4.20;99.90
19342;DHT22;9807;48.258;12.690;2023-04-03T00:24:21;4.10;99.90
19342;DHT22;9807;48.258;12.690;2023-04-03T00:26:46;4.10;99.90
19342;DHT22;9807;48.258;12.690;2023-04-03T00:29:12;4.10;99.90
19342;DHT22;9807;48.258;12.690;2023-04-03T00:31:38;4.10;99.90
19342;DHT22;9807;48.258;12.690;2023-04-03T00:34:03;4.20;99.90
19342;DHT22;9807;48.258;12.690;2023-04-03T00:36:29;4.10;99.90
19342;DHT22;9807;48.258;12.690;2023-04-03T00:38:55;4.10;99.90
19342;DHT22;9807;48.258;12.690;2023-04-03T00:41:20;4.20;99.90
19342;DHT22;9807;48.258;12.690;2023-04-03T00:43:46;4.20;99.90
19342;DHT22;9807;48.258;12.690;2023-04-03T00:46:12;4.20;99.90
19342;DHT22;9807;48.258;12.690;2023-04-03T00:48:41;4.20;99.90
19342;DHT22;9807;48.258;12.690;2023-04-03T00:51:11;4.00;99.90
19342;DHT22;9807;48.258;12.690;2023-04-03T00:53:59;4.00;99.90
19342;DHT22;9807;48.258;12.690;2023-04-03T00:56:27;3.90;99.90
19342;DHT22;9807;48.258;12.690;2023-04-03T00:59:09;3.90;99.90
19342;DHT22;9807;48.258;12.690;2023-04-03T01:01:36;4.00;99.90
19342;DHT22;9807;48.258;12.690;2023-04-03T01:04:04;3.90;99.90
19342;DHT22;9807;48.258;12.690;2023-04-03T01:06:34;3.90;99.90
19342;DHT22;9807;48.258;12.690;2023-04-03T01:09:01;3.90;99.90
19342;DHT22;9807;48.258;12.690;2023-04-03T01:11:27;3.90;99.90
19342;DHT22;9807;48.258;12.690;2023-04-03T01:13:53;3.90;99.90
19342;DHT22;9807;48.258;12.690;2023-04-03T01:16:19;3.80;99.90
19342;DHT22;9807;48.258;12.690;2023-04-03T01:18:45;3.80;99.90
19342;DHT22;9807;48.258;12.690;2023-04-03T01:24:07;3.80;99.90
19342;DHT22;9807;48.258;12.690;2023-04-03T01:26:35;3.80;99.90
19342;DHT22;9807;48.258;12.690;2023-04-03T01:29:01;3.80;99.90
19342;DHT22;9807;48.258;12.690;2023-04-03T01:34:01;3.80;99.90
19342;DHT22;9807;48.258;12.690;2023-04-03T01:36:30;3.90;99.90
19342;DHT22;9807;48.258;12.690;2023-04-03T01:38:57;3.90;99.90
19342;DHT22;9807;48.258;12.690;2023-04-03T01:41:23;3.90;99.90
19342;DHT22;9807;48.258;12.690;2023-04-03T01:43:49;3.90;99.90
19342;DHT22;9807;48.258;12.690;2023-04-03T01:46:16;3.80;99.90
19342;DHT22;9807;48.258;12.690;2023-04-03T01:48:42;3.80;99.90
19342;DHT22;9807;48.258;12.690;2023-04-03T01:51:08;3.80;99.90
19342;DHT22;9807;48.258;12.690;2023-04-03T01:53:34;3.80;99.90
19342;DHT22;9807;48.258;12.690;2023-04-03T01:56:03;3.90;99.90
19342;DHT22;9807;48.258;12.690;2023-04-03T01:58:28;3.90;99.90
19342;DHT22;9807;48.258;12.690;2023-04-03T02:00:54;4.00;99.90
19342;DHT22;9807;48.258;12.690;2023-04-03T02:03:20;4.10;99.90
19342;DHT22;9807;48.258;12.690;2023-04-03T02:05:46;4.10;99.90
19342;DHT22;9807;48.258;12.690;2023-04-03T02:08:12;4.00;99.90
19342;DHT22;9807;48.258;12.690;2023-04-03T02:10:38;3.90;99.90
19342;DHT22;9807;48.258;12.690;2023-04-03T02:13:04;3.90;99.90
19342;DHT22;9807;48.258;12.690;2023-04-03T02:15:30;3.90;99.90
19342;DHT22;9807;48.258;12.690;2023-04-03T02:17:56;3.90;99.90
19342;DHT22;9807;48.258;12.690;2023-04-03T02:20:22;3.80;99.90
19342;DHT22;9807;48.258;12.690;2023-04-03T02:22:47;3.80;99.90
19342;DHT22;9807;48.258;12.690;2023-04-03T02:25:14;3.70;99.90
19342;DHT22;9807;48.258;12.690;2023-04-03T02:27:40;3.70;99.90
19342;DHT22;9807;48.258;12.690;2023-04-03T02:30:06;3.70;99.90
19342;DHT22;9807;48.258;12.690;2023-04-03T02:32:32;3.70;99.90
19342;DHT22;9807;48.258;12.690;2023-04-03T02:34:58;3.70;99.90
19342;DHT22;9807;48.258;12.690;2023-04-03T02:37:23;3.60;99.90
19342;DHT22;9807;48.258;12.690;2023-04-03T02:39:50;3.70;99.90
19342;DHT22;9807;48.258;12.690;2023-04-03T02:42:16;3.70;99.90
19342;DHT22;9807;48.258;12.690;2023-04-03T02:44:41;3.70;99.90
19342;DHT22;9807;48.258;12.690;2023-04-03T02:47:07;3.80;99.90
19342;DHT22;9807;48.258;12.690;2023-04-03T02:49:33;3.60;99.90
19342;DHT22;9807;48.258;12.690;2023-04-03T02:51:58;3.70;99.90
19342;DHT22;9807;48.258;12.690;2023-04-03T02:54:24;3.70;99.90
19342;DHT22;9807;48.258;12.690;2023-04-03T02:56:53;3.60;99.90
19342;DHT22;9807;48.258;12.690;2023-04-03T02:59:19;3.70;99.90
19342;DHT22;9807;48.258;12.690;2023-04-03T03:01:45;3.70;99.90
19342;DHT22;9807;48.258;12.690;2023-04-03T03:04:11;3.60;99.90
19342;DHT22;9807;48.258;12.690;2023-04-03T03:06:37;3.60;99.90
19342;DHT22;9807;48.258;12.690;2023-04-03T03:09:02;3.60;99.90
19342;DHT22;9807;48.258;12.690;2023-04-03T03:11:29;3.60;99.90
19342;DHT22;9807;48.258;12.690;2023-04-03T03:13:55;3.70;99.90
19342;DHT22;9807;48.258;12.690;2023-04-03T03:16:21;3.70;99.90
19342;DHT22;9807;48.258;12.690;2023-04-03T03:18:47;3.70;99.90
19342;DHT22;9807;48.258;12.690;2023-04-03T03:21:12;3.60;99.90
19342;DHT22;9807;48.258;12.690;2023-04-03T03:23:38;3.60;99.90
19342;DHT22;9807;48.258;12.690;2023-04-03T03:26:07;3.60;99.90
19342;DHT22;9807;48.258;12.690;2023-04-03T03:28:33;3.70;99.90
19342;DHT22;9807;48.258;12.690;2023-04-03T03:30:59;3.60;99.90
19342;DHT22;9807;48.258;12.690;2023-04-03T03:33:25;3.60;99.90
19342;DHT22;9807;48.258;12.690;2023-04-03T03:35:52;3.60;99.90
19342;DHT22;9807;48.258;12.690;2023-04-03T03:38:18;3.60;99.90
19342;DHT22;9807;48.258;12.690;2023-04-03T03:40:44;3.60;99.90
19342;DHT22;9807;48.258;12.690;2023-04-03T03:43:09;3.70;99.90
19342;DHT22;9807;48.258;12.690;2023-04-03T03:45:35;3.70;99.90
19342;DHT22;9807;48.258;12.690;2023-04-03T03:48:02;3.60;99.90
19342;DHT22;9807;48.258;12.690;2023-04-03T03:50:28;3.50;99.90
19342;DHT22;9807;48.258;12.690;2023-04-03T03:52:54;3.60;99.90
19342;DHT22;9807;48.258;12.690;2023-04-03T03:55:19;3.60;99.90
19342;DHT22;9807;48.258;12.690;2023-04-03T03:57:45;3.70;99.90
19342;DHT22;9807;48.258;12.690;2023-04-03T04:00:11;3.70;99.90
19342;DHT22;9807;48.258;12.690;2023-04-03T04:02:37;3.80;99.90
19342;DHT22;9807;48.258;12.690;2023-04-03T04:05:03;3.80;99.90
19342;DHT22;9807;48.258;12.690;2023-04-03T04:07:29;3.80;99.90
19342;DHT22;9807;48.258;12.690;2023-04-03T04:09:55;3.80;99.90
19342;DHT22;9807;48.258;12.690;2023-04-03T04:12:20;3.80;99.90
19342;DHT22;9807;48.258;12.690;2023-04-03T04:14:46;3.70;99.90
19342;DHT22;9807;48.258;12.690;2023-04-03T04:17:16;3.60;99.90
19342;DHT22;9807;48.258;12.690;2023-04-03T04:19:41;3.60;99.90
19342;DHT22;9807;48.258;12.690;2023-04-03T04:22:07;3.60;99.90
19342;DHT22;9807;48.258;12.690;2023-04-03T04:24:33;3.70;99.90
19342;DHT22;9807;48.258;12.690;2023-04-03T04:26:58;3.60;99.90
19342;DHT22;9807;48.258;12.690;2023-04-03T04:29:24;3.70;99.90
19342;DHT22;9807;48.258;12.690;2023-04-03T04:31:50;3.70;99.90
19342;DHT22;9807;48.258;12.690;2023-04-03T04:34:18;3.70;99.90
19342;DHT22;9807;48.258;12.690;2023-04-03T04:36:44;3.70;99.90
19342;DHT22;9807;48.258;12.690;2023-04-03T04:39:10;3.70;99.90
19342;DHT22;9807;48.258;12.690;2023-04-03T04:41:35;3.70;99.90
19342;DHT22;9807;48.258;12.690;2023-04-03T04:44:02;3.60;99.90
19342;DHT22;9807;48.258;12.690;2023-04-03T04:46:28;3.60;99.90
19342;DHT22;9807;48.258;12.690;2023-04-03T04:48:53;3.50;99.90
19342;DHT22;9807;48.258;12.690;2023-04-03T04:51:19;3.80;99.90
19342;DHT22;9807;48.258;12.690;2023-04-03T04:53:45;4.20;99.90
19342;DHT22;9807;48.258;12.690;2023-04-03T04:56:11;4.70;99.90
19342;DHT22;9807;48.258;12.690;2023-04-03T04:58:37;5.10;99.90
19342;DHT22;9807;48.258;12.690;2023-04-03T05:01:08;5.60;99.90
19342;DHT22;9807;48.258;12.690;2023-04-03T05:03:40;5.80;99.90
19342;DHT22;9807;48.258;12.690;2023-04-03T05:06:06;5.80;99.90
19342;DHT22;9807;48.258;12.690;2023-04-03T05:08:32;6.00;99.90
19342;DHT22;9807;48.258;12.690;2023-04-03T05:10:58;5.80;99.90
19342;DHT22;9807;48.258;12.690;2023-04-03T05:13:33;5.50;99.90
19342;DHT22;9807;48.258;12.690;2023-04-03T05:15:59;5.10;99.90
19342;DHT22;9807;48.258;12.690;2023-04-03T05:18:24;5.00;99.90
19342;DHT22;9807;48.258;12.690;2023-04-03T05:20:50;4.90;99.90
19342;DHT22;9807;48.258;12.690;2023-04-03T05:23:16;4.70;99.90
19342;DHT22;9807;48.258;12.690;2023-04-03T05:25:42;4.60;99.90
19342;DHT22;9807;48.258;12.690;2023-04-03T05:28:11;4.50;99.90
19342;DHT22;9807;48.258;12.690;2023-04-03T05:30:42;4.60;99.90
19342;DHT22;9807;48.258;12.690;2023-04-03T05:33:08;4.60;99.90
19342;DHT22;9807;48.258;12.690;2023-04-03T05:35:36;4.50;99.90
19342;DHT22;9807;48.258;12.690;2023-04-03T05:38:05;4.50;99.90
19342;DHT22;9807;48.258;12.690;2023-04-03T05:40:31;4.40;99.90
19342;DHT22;9807;48.258;12.690;2023-04-03T05:42:59;4.70;99.90
19342;DHT22;9807;48.258;12.690;2023-04-03T05:45:27;4.90;99.90
19342;DHT22;9807;48.258;12.690;2023-04-03T05:47:53;5.10;99.90
19342;DHT22;9807;48.258;12.690;2023-04-03T05:50:19;5.30;99.90
19342;DHT22;9807;48.258;12.690;2023-04-03T05:52:47;5.40;99.90
19342;DHT22;9807;48.258;12.690;2023-04-03T05:55:16;5.50;99.90
19342;DHT22;9807;48.258;12.690;2023-04-03T05:57:42;5.40;99.90
19342;DHT22;9807;48.258;12.690;2023-04-03T06:00:11;5.30;99.90
19342;DHT22;9807;48.258;12.690;2023-04-03T06:02:38;5.10;99.90
19342;DHT22;9807;48.258;12.690;2023-04-03T06:05:04;4.90;99.90
19342;DHT22;9807;48.258;12.690;2023-04-03T06:07:30;4.70;99.90
19342;DHT22;9807;48.258;12.690;2023-04-03T06:09:57;4.60;99.90
19342;DHT22;9807;48.258;12.690;2023-04-03T06:12:25;4.50;99.90
19342;DHT22;9807;48.258;12.690;2023-04-03T06:14:51;4.50;99.90
19342;DHT22;9807;48.258;12.690;2023-04-03T06:17:18;4.50;99.90
19342;DHT22;9807;48.258;12.690;2023-04-03T06:19:44;4.40;99.90
19342;DHT22;9807;48.258;12.690;2023-04-03T06:22:10;4.40;99.90
19342;DHT22;9807;48.258;12.690;2023-04-03T06:24:37;4.30;99.90
19342;DHT22;9807;48.258;12.690;2023-04-03T06:27:03;4.20;99.90
19342;DHT22;9807;48.258;12.690;2023-04-03T06:29:30;4.20;99.90
19342;DHT22;9807;48.258;12.690;2023-04-03T06:31:58;4.10;99.90
19342;DHT22;9807;48.258;12.690;2023-04-03T06:34:24;4.20;99.90
19342;DHT22;9807;48.258;12.690;2023-04-03T06:36:50;4.20;99.90
19342;DHT22;9807;48.258;12.690;2023-04-03T06:39:19;4.30;99.90
19342;DHT22;9807;48.258;12.690;2023-04-03T06:41:48;4.50;99.90
19342;DHT22;9807;48.258;12.690;2023-04-03T06:44:14;4.60;99.90
19342;DHT22;9807;48.258;12.690;2023-04-03T06:46:42;4.80;99.90
19342;DHT22;9807;48.258;12.690;2023-04-03T06:49:11;5.00;99.90
19342;DHT22;9807;48.258;12.690;2023-04-03T06:51:36;5.00;99.90
19342;DHT22;9807;48.258;12.690;2023-04-03T06:54:04;5.00;99.90
19342;DHT22;9807;48.258;12.690;2023-04-03T06:56:31;5.10;99.90
19342;DHT22;9807;48.258;12.690;2023-04-03T06:58:57;5.50;99.90
19342;DHT22;9807;48.258;12.690;2023-04-03T07:01:25;5.70;99.90
19342;DHT22;9807;48.258;12.690;2023-04-03T07:03:52;5.90;99.90
19342;DHT22;9807;48.258;12.690;2023-04-03T07:06:19;6.00;99.90
19342;DHT22;9807;48.258;12.690;2023-04-03T07:08:45;5.90;99.90
19342;DHT22;9807;48.258;12.690;2023-04-03T07:11:12;5.70;99.90
19342;DHT22;9807;48.258;12.690;2023-04-03T07:13:38;5.80;99.90
19342;DHT22;9807;48.258;12.690;2023-04-03T07:16:08;5.90;99.90
19342;DHT22;9807;48.258;12.690;2023-04-03T07:18:38;5.80;99.90
19342;DHT22;9807;48.258;12.690;2023-04-03T07:21:04;5.70;99.90
19342;DHT22;9807;48.258;12.690;2023-04-03T07:23:30;6.00;99.90
19342;DHT22;9807;48.258;12.690;2023-04-03T07:25:55;6.00;99.90
19342;DHT22;9807;48.258;12.690;2023-04-03T07:28:22;6.20;99.90
19342;DHT22;9807;48.258;12.690;2023-04-03T07:31:00;6.50;99.90
19342;DHT22;9807;48.258;12.690;2023-04-03T07:33:29;7.10;99.90
19342;DHT22;9807;48.258;12.690;2023-04-03T07:35:58;7.60;99.90
19342;DHT22;9807;48.258;12.690;2023-04-03T07:38:24;7.80;99.90
19342;DHT22;9807;48.258;12.690;2023-04-03T07:40:50;7.90;99.90
19342;DHT22;9807;48.258;12.690;2023-04-03T07:43:18;8.10;99.90
19342;DHT22;9807;48.258;12.690;2023-04-03T07:45:45;8.20;99.90
19342;DHT22;9807;48.258;12.690;2023-04-03T07:48:12;7.70;99.90
19342;DHT22;9807;48.258;12.690;2023-04-03T07:50:40;7.50;99.90
19342;DHT22;9807;48.258;12.690;2023-04-03T07:53:06;7.40;99.90
19342;DHT22;9807;48.258;12.690;2023-04-03T07:55:33;6.90;99.90
19342;DHT22;9807;48.258;12.690;2023-04-03T07:57:59;6.60;99.90
19342;DHT22;9807;48.258;12.690;2023-04-03T08:00:25;6.10;99.90
19342;DHT22;9807;48.258;12.690;2023-04-03T08:02:50;5.90;99.90
19342;DHT22;9807;48.258;12.690;2023-04-03T08:05:20;5.70;99.90
19342;DHT22;9807;48.258;12.690;2023-04-03T08:07:47;5.60;99.90
19342;DHT22;9807;48.258;12.690;2023-04-03T08:10:13;5.50;99.90
19342;DHT22;9807;48.258;12.690;2023-04-03T08:12:39;5.50;99.90
19342;DHT22;9807;48.258;12.690;2023-04-03T08:15:06;5.60;99.90
19342;DHT22;9807;48.258;12.690;2023-04-03T08:17:33;5.70;99.90
19342;DHT22;9807;48.258;12.690;2023-04-03T08:20:00;5.80;99.90
19342;DHT22;9807;48.258;12.690;2023-04-03T08:22:26;5.80;99.90
19342;DHT22;9807;48.258;12.690;2023-04-03T08:24:52;6.10;99.90
19342;DHT22;9807;48.258;12.690;2023-04-03T08:27:17;6.20;99.90
19342;DHT22;9807;48.258;12.690;2023-04-03T08:29:43;6.20;99.90
19342;DHT22;9807;48.258;12.690;2023-04-03T08:32:09;6.20;99.90
19342;DHT22;9807;48.258;12.690;2023-04-03T08:34:37;6.10;99.90
19342;DHT22;9807;48.258;12.690;2023-04-03T08:37:05;6.00;99.90
19342;DHT22;9807;48.258;12.690;2023-04-03T08:39:37;5.80;99.90
19342;DHT22;9807;48.258;12.690;2023-04-03T08:42:11;6.00;99.90
19342;DHT22;9807;48.258;12.690;2023-04-03T08:44:59;6.00;99.90
19342;DHT22;9807;48.258;12.690;2023-04-03T08:47:46;5.90;99.90
19342;DHT22;9807;48.258;12.690;2023-04-03T08:50:16;6.00;99.90
19342;DHT22;9807;48.258;12.690;2023-04-03T08:52:56;6.10;99.90
19342;DHT22;9807;48.258;12.690;2023-04-03T08:55:32;6.30;99.90
19342;DHT22;9807;48.258;12.690;2023-04-03T08:58:02;6.30;99.90
19342;DHT22;9807;48.258;12.690;2023-04-03T09:03:30;6.10;99.90
19342;DHT22;9807;48.258;12.690;2023-04-03T09:06:18;5.90;99.90
19342;DHT22;9807;48.258;12.690;2023-04-03T09:09:06;5.70;99.90
19342;DHT22;9807;48.258;12.690;2023-04-03T09:12:11;6.10;99.90
19342;DHT22;9807;48.258;12.690;2023-04-03T09:14:52;6.40;99.90
19342;DHT22;9807;48.258;12.690;2023-04-03T09:20:32;6.20;99.90
19342;DHT22;9807;48.258;12.690;2023-04-03T09:25:40;5.60;99.90
19342;DHT22;9807;48.258;12.690;2023-04-03T09:28:06;5.40;99.90
19342;DHT22;9807;48.258;12.690;2023-04-03T09:30:38;5.20;99.90
19342;DHT22;9807;48.258;12.690;2023-04-03T09:33:04;5.30;99.90
19342;DHT22;9807;48.258;12.690;2023-04-03T09:35:33;5.60;99.90
19342;DHT22;9807;48.258;12.690;2023-04-03T09:38:01;5.60;99.90
19342;DHT22;9807;48.258;12.690;2023-04-03T09:40:38;5.90;99.90
19342;DHT22;9807;48.258;12.690;2023-04-03T09:45:42;7.30;99.90
19342;DHT22;9807;48.258;12.690;2023-04-03T09:50:52;8.00;99.90
19342;DHT22;9807;48.258;12.690;2023-04-03T09:53:37;7.40;99.90
19342;DHT22;9807;48.258;12.690;2023-04-03T09:56:18;7.20;99.90
19342;DHT22;9807;48.258;12.690;2023-04-03T10:01:31;7.20;99.90
19342;DHT22;9807;48.258;12.690;2023-04-03T10:04:14;7.40;99.90
19342;DHT22;9807;48.258;12.690;2023-04-03T10:06:41;7.30;99.90
19342;DHT22;9807;48.258;12.690;2023-04-03T10:12:07;6.70;99.90
19342;DHT22;9807;48.258;12.690;2023-04-03T10:27:49;7.40;99.90
19342;DHT22;9807;48.258;12.690;2023-04-03T10:32:58;7.50;99.90
19342;DHT22;9807;48.258;12.690;2023-04-03T10:38:18;7.20;99.90
19342;DHT22;9807;48.258;12.690;2023-04-03T10:41:02;7.20;99.90
19342;DHT22;9807;48.258;12.690;2023-04-03T10:46:23;6.50;99.90
19342;DHT22;9807;48.258;12.690;2023-04-03T10:49:10;6.30;99.90
19342;DHT22;9807;48.258;12.690;2023-04-03T10:55:06;6.30;99.90
19342;DHT22;9807;48.258;12.690;2023-04-03T10:57:33;6.30;99.90
19342;DHT22;9807;48.258;12.690;2023-04-03T11:00:16;6.30;99.90
19342;DHT22;9807;48.258;12.690;2023-04-03T11:02:57;6.70;99.90
19342;DHT22;9807;48.258;12.690;2023-04-03T11:08:11;8.00;99.90
19342;DHT22;9807;48.258;12.690;2023-04-03T11:10:44;8.30;99.90
19342;DHT22;9807;48.258;12.690;2023-04-03T11:13:38;7.90;99.90
19342;DHT22;9807;48.258;12.690;2023-04-03T11:16:06;7.30;99.90
19342;DHT22;9807;48.258;12.690;2023-04-03T11:18:52;6.90;99.90
19342;DHT22;9807;48.258;12.690;2023-04-03T11:21:24;6.60;99.90
19342;DHT22;9807;48.258;12.690;2023-04-03T11:23:56;6.30;99.90
19342;DHT22;9807;48.258;12.690;2023-04-03T11:26:27;6.20;99.90
19342;DHT22;9807;48.258;12.690;2023-04-03T11:29:05;6.10;99.90
19342;DHT22;9807;48.258;12.690;2023-04-03T11:31:44;6.30;99.90
19342;DHT22;9807;48.258;12.690;2023-04-03T11:37:23;6.40;99.90
19342;DHT22;9807;48.258;12.690;2023-04-03T11:39:58;6.40;99.90
19342;DHT22;9807;48.258;12.690;2023-04-03T11:42:39;6.50;99.90
19342;DHT22;9807;48.258;12.690;2023-04-03T11:47:50;6.80;99.90
19342;DHT22;9807;48.258;12.690;2023-04-03T11:50:39;7.10;99.90
19342;DHT22;9807;48.258;12.690;2023-04-03T12:00:47;8.20;99.90
19342;DHT22;9807;48.258;12.690;2023-04-03T12:26:44;10.50;99.90
19342;DHT22;9807;48.258;12.690;2023-04-03T12:35:30;8.10;99.90
19342;DHT22;9807;48.258;12.690;2023-04-03T12:38:21;7.40;99.90
19342;DHT22;9807;48.258;12.690;2023-04-03T12:48:54;7.00;99.90
19342;DHT22;9807;48.258;12.690;2023-04-03T12:51:44;7.00;99.90
19342;DHT22;9807;48.258;12.690;2023-04-03T12:54:30;7.50;99.90
19342;DHT22;9807;48.258;12.690;2023-04-03T12:57:18;7.60;99.90
19342;DHT22;9807;48.258;12.690;2023-04-03T12:59:45;7.90;99.90
19342;DHT22;9807;48.258;12.690;2023-04-03T13:02:43;7.90;99.90
19342;DHT22;9807;48.258;12.690;2023-04-03T13:05:16;7.60;99.90
19342;DHT22;9807;48.258;12.690;2023-04-03T13:07:44;7.50;99.90
19342;DHT22;9807;48.258;12.690;2023-04-03T13:10:16;7.70;99.90
19342;DHT22;9807;48.258;12.690;2023-04-03T13:12:47;7.90;99.90
19342;DHT22;9807;48.258;12.690;2023-04-03T13:15:44;7.70;99.90
19342;DHT22;9807;48.258;12.690;2023-04-03T13:18:27;7.40;99.90
19342;DHT22;9807;48.258;12.690;2023-04-03T13:21:06;7.20;99.90
19342;DHT22;9807;48.258;12.690;2023-04-03T13:23:36;6.90;99.90
19342;DHT22;9807;48.258;12.690;2023-04-03T13:26:05;6.80;99.90
19342;DHT22;9807;48.258;12.690;2023-04-03T13:28:33;6.90;99.90
19342;DHT22;9807;48.258;12.690;2023-04-03T13:31:14;7.30;99.90
19342;DHT22;9807;48.258;12.690;2023-04-03T13:34:06;7.80;99.90
19342;DHT22;9807;48.258;12.690;2023-04-03T13:41:38;8.30;99.90
19342;DHT22;9807;48.258;12.690;2023-04-03T13:46:49;8.80;99.90
19342;DHT22;9807;48.258;12.690;2023-04-03T13:49:42;8.90;99.90
19342;DHT22;9807;48.258;12.690;2023-04-03T13:52:26;9.20;99.90
19342;DHT22;9807;48.258;12.690;2023-04-03T13:55:03;8.80;99.90
19342;DHT22;9807;48.258;12.690;2023-04-03T13:57:36;9.00;99.90
19342;DHT22;9807;48.258;12.690;2023-04-03T14:00:30;9.40;99.90
19342;DHT22;9807;48.258;12.690;2023-04-03T14:02:59;8.90;99.90
19342;DHT22;9807;48.258;12.690;2023-04-03T14:05:25;8.60;99.90
19342;DHT22;9807;48.258;12.690;2023-04-03T14:07:55;8.60;99.90
19342;DHT22;9807;48.258;12.690;2023-04-03T14:10:22;8.80;99.90
19342;DHT22;9807;48.258;12.690;2023-04-03T14:12:48;8.70;99.90
19342;DHT22;9807;48.258;12.690;2023-04-03T14:15:22;9.10;99.90
19342;DHT22;9807;48.258;12.690;2023-04-03T14:17:49;9.10;99.90
19342;DHT22;9807;48.258;12.690;2023-04-03T14:20:20;9.00;99.90
19342;DHT22;9807;48.258;12.690;2023-04-03T14:22:50;8.80;99.90
19342;DHT22;9807;48.258;12.690;2023-04-03T14:25:17;8.80;99.90
19342;DHT22;9807;48.258;12.690;2023-04-03T14:27:48;8.90;99.90
19342;DHT22;9807;48.258;12.690;2023-04-03T14:30:20;8.80;99.90
19342;DHT22;9807;48.258;12.690;2023-04-03T14:32:47;9.40;99.90
19342;DHT22;9807;48.258;12.690;2023-04-03T14:35:16;9.40;99.90
19342;DHT22;9807;48.258;12.690;2023-04-03T14:37:43;9.70;99.90
19342;DHT22;9807;48.258;12.690;2023-04-03T14:40:13;9.80;99.90
19342;DHT22;9807;48.258;12.690;2023-04-03T14:42:40;9.30;99.90
19342;DHT22;9807;48.258;12.690;2023-04-03T14:45:09;8.50;99.90
19342;DHT22;9807;48.258;12.690;2023-04-03T14:47:47;8.70;99.90
19342;DHT22;9807;48.258;12.690;2023-04-03T14:50:17;8.80;99.90
19342;DHT22;9807;48.258;12.690;2023-04-03T14:52:44;9.30;99.90
19342;DHT22;9807;48.258;12.690;2023-04-03T14:55:12;8.40;99.90
19342;DHT22;9807;48.258;12.690;2023-04-03T14:57:40;7.60;99.90
19342;DHT22;9807;48.258;12.690;2023-04-03T15:00:11;7.60;99.90
19342;DHT22;9807;48.258;12.690;2023-04-03T15:02:38;8.00;99.90
19342;DHT22;9807;48.258;12.690;2023-04-03T15:05:07;8.60;99.90
19342;DHT22;9807;48.258;12.690;2023-04-03T15:07:36;9.40;99.90
19342;DHT22;9807;48.258;12.690;2023-04-03T15:10:17;10.10;99.90
19342;DHT22;9807;48.258;12.690;2023-04-03T15:12:44;9.90;99.90
19342;DHT22;9807;48.258;12.690;2023-04-03T15:15:10;9.00;99.90
19342;DHT22;9807;48.258;12.690;2023-04-03T15:17:36;9.20;99.90
19342;DHT22;9807;48.258;12.690;2023-04-03T15:20:02;9.50;99.90
19342;DHT22;9807;48.258;12.690;2023-04-03T15:22:28;8.80;99.90
19342;DHT22;9807;48.258;12.690;2023-04-03T15:24:54;8.40;99.90
19342;DHT22;9807;48.258;12.690;2023-04-03T15:27:19;7.80;99.90
19342;DHT22;9807;48.258;12.690;2023-04-03T15:29:45;7.30;99.90
19342;DHT22;9807;48.258;12.690;2023-04-03T15:32:12;7.00;99.90
19342;DHT22;9807;48.258;12.690;2023-04-03T15:34:38;6.70;99.90
19342;DHT22;9807;48.258;12.690;2023-04-03T15:37:04;6.60;99.90
19342;DHT22;9807;48.258;12.690;2023-04-03T15:39:30;6.50;99.90
19342;DHT22;9807;48.258;12.690;2023-04-03T15:41:58;6.50;99.90
19342;DHT22;9807;48.258;12.690;2023-04-03T15:44:32;6.50;99.90
19342;DHT22;9807;48.258;12.690;2023-04-03T15:46:59;6.70;99.90
19342;DHT22;9807;48.258;12.690;2023-04-03T15:49:25;6.90;99.90
19342;DHT22;9807;48.258;12.690;2023-04-03T15:51:52;7.10;99.90
19342;DHT22;9807;48.258;12.690;2023-04-03T15:54:18;7.20;99.90
19342;DHT22;9807;48.258;12.690;2023-04-03T15:56:44;7.00;99.90
19342;DHT22;9807;48.258;12.690;2023-04-03T15:59:10;7.00;99.90
19342;DHT22;9807;48.258;12.690;2023-04-03T16:01:37;7.00;99.90
19342;DHT22;9807;48.258;12.690;2023-04-03T16:04:04;7.50;99.90
19342;DHT22;9807;48.258;12.690;2023-04-03T16:06:30;8.00;99.90
19342;DHT22;9807;48.258;12.690;2023-04-03T16:08:57;8.70;99.90
19342;DHT22;9807;48.258;12.690;2023-04-03T16:11:24;8.00;99.90
19342;DHT22;9807;48.258;12.690;2023-04-03T16:13:51;7.30;99.90
19342;DHT22;9807;48.258;12.690;2023-04-03T16:16:17;6.80;99.90
19342;DHT22;9807;48.258;12.690;2023-04-03T16:18:43;6.40;99.90
19342;DHT22;9807;48.258;12.690;2023-04-03T16:21:09;6.60;99.90
19342;DHT22;9807;48.258;12.690;2023-04-03T16:23:38;6.50;99.90
19342;DHT22;9807;48.258;12.690;2023-04-03T16:26:03;6.90;99.90
19342;DHT22;9807;48.258;12.690;2023-04-03T16:28:29;7.40;99.90
19342;DHT22;9807;48.258;12.690;2023-04-03T16:30:55;7.90;99.90
19342;DHT22;9807;48.258;12.690;2023-04-03T16:33:20;7.40;99.90
19342;DHT22;9807;48.258;12.690;2023-04-03T16:35:48;7.30;99.90
19342;DHT22;9807;48.258;12.690;2023-04-03T16:38:14;7.20;99.90
19342;DHT22;9807;48.258;12.690;2023-04-03T16:40:41;7.40;99.90
19342;DHT22;9807;48.258;12.690;2023-04-03T16:43:07;7.60;99.90
19342;DHT22;9807;48.258;12.690;2023-04-03T16:45:33;7.90;99.90
19342;DHT22;9807;48.258;12.690;2023-04-03T16:47:58;8.30;99.90
19342;DHT22;9807;48.258;12.690;2023-04-03T16:50:24;8.80;99.90
19342;DHT22;9807;48.258;12.690;2023-04-03T16:53:04;8.00;99.90
19342;DHT22;9807;48.258;12.690;2023-04-03T16:55:37;7.90;99.90
19342;DHT22;9807;48.258;12.690;2023-04-03T16:58:20;8.20;99.90
19342;DHT22;9807;48.258;12.690;2023-04-03T17:00:46;7.70;99.90
19342;DHT22;9807;48.258;12.690;2023-04-03T17:03:12;7.80;99.90
19342;DHT22;9807;48.258;12.690;2023-04-03T17:05:38;7.80;99.90
19342;DHT22;9807;48.258;12.690;2023-04-03T17:08:04;7.40;99.90
19342;DHT22;9807;48.258;12.690;2023-04-03T17:10:30;7.40;99.90
19342;DHT22;9807;48.258;12.690;2023-04-03T17:12:56;7.10;99.90
19342;DHT22;9807;48.258;12.690;2023-04-03T17:15:22;7.30;99.90
19342;DHT22;9807;48.258;12.690;2023-04-03T17:17:50;7.20;99.90
19342;DHT22;9807;48.258;12.690;2023-04-03T17:20:16;6.70;99.90
19342;DHT22;9807;48.258;12.690;2023-04-03T17:22:49;6.20;99.90
19342;DHT22;9807;48.258;12.690;2023-04-03T17:25:17;5.80;99.90
19342;DHT22;9807;48.258;12.690;2023-04-03T17:27:50;5.70;99.90
19342;DHT22;9807;48.258;12.690;2023-04-03T17:30:15;6.00;99.90
19342;DHT22;9807;48.258;12.690;2023-04-03T17:32:42;5.60;99.90
19342;DHT22;9807;48.258;12.690;2023-04-03T17:35:12;5.80;99.90
19342;DHT22;9807;48.258;12.690;2023-04-03T17:37:38;5.80;99.90
19342;DHT22;9807;48.258;12.690;2023-04-03T17:40:05;5.70;99.90
19342;DHT22;9807;48.258;12.690;2023-04-03T17:42:31;5.80;99.90
19342;DHT22;9807;48.258;12.690;2023-04-03T17:44:57;5.80;99.90
19342;DHT22;9807;48.258;12.690;2023-04-03T17:47:25;5.70;99.90
19342;DHT22;9807;48.258;12.690;2023-04-03T17:49:51;5.70;99.90